createdAt,value
2023-04-10T00:01:12.282Z,22.25
2023-04-10T00:03:41.535Z,24.25
2023-04-10T00:06:11.879Z,25.38
2023-04-10T00:08:40.091Z,25.98
2023-04-10T00:11:08.680Z,24.10
2023-04-10T00:13:36.823Z,25.05
2023-04-10T00:16:05.352Z,22.23
2023-04-10T00:18:34.119Z,22.70
2023-04-10T00:21:04.114Z,22.20
2023-04-10T00:23:35.145Z,24.55
2023-04-10T00:26:03.384Z,22.60
2023-04-10T00:28:31.931Z,24.33
2023-04-10T00:31:00.434Z,21.73
2023-04-10T00:33:28.680Z,23.15
2023-04-10T00:35:57.096Z,22.45
2023-04-10T00:38:25.343Z,22.50
2023-04-10T00:40:55.408Z,19.48
2023-04-10T00:43:24.498Z,18.75
2023-04-10T00:45:59.994Z,18.45
2023-04-10T00:48:28.635Z,18.52
2023-04-10T00:50:56.855Z,21.38
2023-04-10T00:53:25.017Z,23.08
2023-04-10T00:55:56.031Z,22.33
2023-04-10T00:58:24.505Z,23.30
2023-04-10T01:00:52.894Z,21.65
2023-04-10T01:03:22.834Z,23.40
2023-04-10T01:06:00.763Z,22.10
2023-04-10T01:08:37.897Z,21.10
2023-04-10T01:11:14.875Z,20.48
2023-04-10T01:13:51.959Z,19.70
2023-04-10T01:16:26.227Z,21.35
2023-04-10T01:19:02.271Z,17.70
2023-04-10T01:21:32.607Z,20.85
2023-04-10T01:24:18.000Z,19.00
2023-04-10T01:27:03.140Z,20.60
2023-04-10T01:29:35.939Z,20.08
2023-04-10T01:32:09.562Z,22.88
2023-04-10T01:34:42.401Z,22.45
2023-04-10T01:37:17.458Z,23.13
2023-04-10T01:39:51.518Z,21.85
2023-04-10T01:42:22.332Z,18.73
2023-04-10T01:44:55.051Z,20.55
2023-04-10T01:47:25.659Z,20.45
2023-04-10T01:49:54.923Z,20.88
2023-04-10T01:52:25.136Z,21.13
2023-04-10T01:55:04.712Z,18.90
2023-04-10T01:57:40.451Z,20.05
2023-04-10T02:00:12.403Z,21.60
2023-04-10T02:02:44.256Z,19.55
2023-04-10T02:05:12.843Z,19.75
2023-04-10T02:07:46.809Z,21.17
2023-04-10T02:10:23.719Z,20.30
2023-04-10T02:12:56.626Z,18.33
2023-04-10T02:15:30.238Z,19.92
2023-04-10T02:18:00.968Z,17.85
2023-04-10T02:20:30.054Z,19.48
2023-04-10T02:23:02.373Z,19.33
2023-04-10T02:25:33.014Z,20.23
2023-04-10T02:28:05.310Z,20.35
2023-04-10T02:30:35.937Z,18.98
2023-04-10T02:33:04.608Z,18.55
2023-04-10T02:35:34.817Z,18.25
2023-04-10T02:38:04.852Z,17.35
2023-04-10T02:40:38.055Z,17.23
2023-04-10T02:43:13.574Z,16.42
2023-04-10T02:45:43.929Z,17.77
2023-04-10T02:48:15.365Z,18.90
2023-04-10T02:50:46.547Z,18.40
2023-04-10T02:53:15.525Z,18.20
2023-04-10T02:55:43.707Z,17.77
2023-04-10T02:58:13.802Z,18.83
2023-04-10T03:00:49.505Z,17.25
2023-04-10T03:03:24.134Z,17.40
2023-04-10T03:05:55.805Z,16.77
2023-04-10T03:08:30.444Z,17.73
2023-04-10T03:10:58.650Z,18.77
2023-04-10T03:13:27.037Z,17.40
2023-04-10T03:15:56.965Z,18.80
2023-04-10T03:18:25.508Z,18.58
2023-04-10T03:20:56.191Z,18.08
2023-04-10T03:23:25.068Z,16.83
2023-04-10T03:25:55.359Z,17.73
2023-04-10T03:28:30.002Z,17.58
2023-04-10T03:31:00.671Z,18.50
2023-04-10T03:33:30.279Z,19.00
2023-04-10T03:35:59.300Z,20.10
2023-04-10T03:38:28.053Z,18.23
2023-04-10T03:40:56.593Z,22.33
2023-04-10T03:43:27.203Z,20.70
2023-04-10T03:45:55.748Z,20.42
2023-04-10T03:48:28.350Z,22.17
2023-04-10T03:50:56.882Z,23.02
2023-04-10T03:53:25.222Z,23.70
2023-04-10T03:55:55.076Z,21.30
2023-04-10T03:58:25.445Z,21.35
2023-04-10T04:00:55.738Z,22.65
2023-04-10T04:03:38.034Z,20.20
2023-04-10T04:06:24.870Z,22.25
2023-04-10T04:09:08.181Z,24.20
2023-04-10T04:11:43.152Z,23.20
2023-04-10T04:14:29.073Z,24.65
2023-04-10T04:17:12.529Z,21.75
2023-04-10T04:20:21.045Z,20.58
2023-04-10T04:23:09.902Z,18.38
2023-04-10T04:26:04.700Z,17.42
2023-04-10T04:28:57.154Z,21.30
2023-04-10T04:31:44.105Z,21.50
2023-04-10T04:34:34.647Z,20.80
2023-04-10T04:37:14.576Z,21.52
2023-04-10T04:39:58.758Z,22.20
2023-04-10T04:42:45.837Z,21.95
2023-04-10T04:45:27.561Z,18.02
2023-04-10T04:48:16.254Z,21.15
2023-04-10T04:51:02.653Z,17.92
2023-04-10T04:53:43.453Z,17.95
2023-04-10T04:56:32.166Z,17.02
2023-04-10T04:59:20.542Z,16.42
2023-04-10T05:02:27.431Z,19.17
2023-04-10T05:05:22.316Z,15.98
2023-04-10T05:08:16.112Z,17.30
2023-04-10T05:11:09.257Z,18.75
2023-04-10T05:14:15.610Z,16.40
2023-04-10T05:17:10.596Z,18.80
2023-04-10T05:19:57.996Z,20.05
2023-04-10T05:23:01.705Z,17.30
2023-04-10T05:25:56.615Z,18.73
2023-04-10T05:28:46.847Z,17.00
2023-04-10T05:31:44.143Z,17.80
2023-04-10T05:34:17.228Z,19.63
2023-04-10T05:37:14.858Z,17.45
2023-04-10T05:40:12.619Z,18.15
2023-04-10T05:43:19.097Z,19.15
2023-04-10T05:46:08.074Z,19.17
2023-04-10T05:49:11.617Z,22.98
2023-04-10T05:51:54.515Z,20.67
2023-04-10T05:54:38.968Z,19.20
2023-04-10T05:57:19.870Z,20.83
2023-04-10T06:00:02.479Z,18.60
2023-04-10T06:02:52.809Z,20.25
2023-04-10T06:05:26.532Z,21.50
2023-04-10T06:08:00.635Z,20.77
2023-04-10T06:10:30.730Z,20.33
2023-04-10T06:12:59.464Z,18.63
2023-04-10T06:15:27.942Z,18.55
2023-04-10T06:17:58.272Z,18.75
2023-04-10T06:20:26.527Z,22.33
2023-04-10T06:22:55.135Z,22.80
2023-04-10T06:25:23.439Z,25.63
2023-04-10T06:27:51.972Z,39.42
2023-04-10T06:30:20.099Z,93.47
2023-04-10T06:32:48.591Z,89.75
2023-04-10T06:35:19.364Z,77.60
2023-04-10T06:37:47.746Z,30.25
2023-04-10T06:40:17.183Z,19.73
2023-04-10T06:42:45.454Z,23.10
2023-04-10T06:45:17.355Z,22.95
2023-04-10T06:47:45.792Z,19.90
2023-04-10T06:50:14.085Z,17.83
2023-04-10T06:52:46.085Z,22.48
2023-04-10T06:55:14.341Z,20.70
2023-04-10T06:57:42.679Z,18.98
2023-04-10T07:00:12.407Z,20.85
2023-04-10T07:02:40.834Z,19.27
2023-04-10T07:05:10.338Z,19.92
2023-04-10T07:07:38.835Z,20.88
2023-04-10T07:10:10.346Z,21.25
2023-04-10T07:12:38.629Z,19.30
2023-04-10T07:15:08.973Z,19.60
2023-04-10T07:17:37.437Z,18.75
2023-04-10T07:20:07.165Z,20.02
2023-04-10T07:22:39.501Z,20.75
2023-04-10T07:25:11.380Z,18.15
2023-04-10T07:27:42.684Z,17.05
2023-04-10T07:30:13.933Z,20.52
2023-04-10T07:32:45.583Z,19.02
2023-04-10T07:35:19.034Z,19.42
2023-04-10T07:37:52.873Z,19.23
2023-04-10T07:40:24.138Z,18.05
2023-04-10T07:42:54.779Z,20.10
2023-04-10T07:45:29.692Z,19.58
2023-04-10T07:48:00.084Z,18.75
2023-04-10T07:50:29.439Z,19.92
2023-04-10T07:52:57.916Z,19.67
2023-04-10T07:55:28.733Z,19.77
2023-04-10T07:57:57.373Z,20.10
2023-04-10T08:00:26.196Z,21.15
2023-04-10T08:02:54.829Z,21.05
2023-04-10T08:05:23.048Z,19.63
2023-04-10T08:07:51.526Z,18.00
2023-04-10T08:10:20.075Z,19.85
2023-04-10T08:12:50.253Z,20.08
2023-04-10T08:15:19.065Z,18.17
2023-04-10T08:17:47.211Z,19.02
2023-04-10T08:20:15.638Z,17.55
2023-04-10T08:22:43.852Z,16.67
2023-04-10T08:25:12.397Z,15.23
2023-04-10T08:27:41.075Z,16.65
2023-04-10T08:30:11.815Z,15.20
2023-04-10T08:32:40.370Z,16.38
2023-04-10T08:35:09.665Z,16.02
2023-04-10T08:37:38.629Z,15.20
2023-04-10T08:40:07.733Z,15.10
2023-04-10T08:42:37.600Z,11.82
2023-04-10T08:45:08.619Z,7.85
2023-04-10T08:47:42.331Z,9.25
2023-04-10T08:50:14.403Z,6.82
2023-04-10T08:52:45.249Z,6.80
2023-04-10T08:55:15.142Z,6.22
2023-04-10T08:57:54.103Z,5.50
2023-04-10T09:00:31.784Z,7.78
2023-04-10T09:03:05.158Z,9.95
2023-04-10T09:05:41.947Z,9.82
2023-04-10T09:08:12.406Z,9.35
2023-04-10T09:10:41.007Z,8.20
2023-04-10T09:13:09.084Z,8.40
2023-04-10T09:15:58.399Z,8.65
2023-04-10T09:18:42.333Z,8.48
2023-04-10T09:21:11.901Z,10.48
2023-04-10T09:23:40.197Z,9.20
2023-04-10T09:26:25.864Z,8.52
2023-04-10T09:29:02.685Z,9.75
2023-04-10T09:31:33.722Z,9.38
2023-04-10T09:34:13.243Z,10.13
2023-04-10T09:36:42.772Z,8.70
2023-04-10T09:39:12.094Z,8.90
2023-04-10T09:41:51.908Z,8.60
2023-04-10T09:44:31.415Z,8.30
2023-04-10T09:47:00.700Z,8.88
2023-04-10T09:49:31.028Z,8.73
2023-04-10T09:52:02.668Z,9.82
2023-04-10T09:54:39.012Z,9.93
2023-04-10T09:57:10.701Z,9.15
2023-04-10T09:59:47.758Z,9.30
2023-04-10T10:02:19.912Z,9.77
2023-04-10T10:04:52.550Z,9.60
2023-04-10T10:07:24.176Z,9.30
2023-04-10T10:09:55.597Z,10.68
2023-04-10T10:12:31.140Z,10.13
2023-04-10T10:15:04.051Z,10.40
2023-04-10T10:17:38.633Z,10.60
2023-04-10T10:20:11.752Z,10.30
2023-04-10T10:22:41.495Z,9.88
2023-04-10T10:25:11.004Z,10.90
2023-04-10T10:27:41.134Z,10.35
2023-04-10T10:30:28.070Z,9.75
2023-04-10T10:33:00.143Z,11.00
2023-04-10T10:35:32.777Z,10.98
2023-04-10T10:38:02.892Z,9.05
2023-04-10T10:40:34.752Z,9.00
2023-04-10T10:43:10.563Z,8.25
2023-04-10T10:45:45.444Z,7.90
2023-04-10T10:48:15.494Z,8.00
2023-04-10T10:50:57.429Z,8.88
2023-04-10T10:53:37.989Z,7.60
2023-04-10T10:56:37.893Z,8.85
2023-04-10T10:59:06.128Z,9.55
2023-04-10T11:01:34.544Z,9.38
2023-04-10T11:04:42.646Z,8.65
2023-04-10T11:07:13.363Z,9.38
2023-04-10T11:09:52.574Z,8.60
2023-04-10T11:12:26.124Z,8.50
2023-04-10T11:14:59.760Z,9.18
2023-04-10T11:17:58.364Z,6.43
2023-04-10T11:20:27.857Z,8.60
2023-04-10T11:23:11.911Z,7.53
2023-04-10T11:25:49.522Z,8.40
2023-04-10T11:28:38.229Z,7.43
2023-04-10T11:31:19.786Z,7.03
2023-04-10T11:33:48.884Z,8.85
2023-04-10T11:36:18.628Z,7.95
2023-04-10T11:38:59.469Z,7.32
2023-04-10T11:41:30.500Z,8.25
2023-04-10T11:43:59.323Z,8.02
2023-04-10T11:46:27.640Z,9.27
2023-04-10T11:48:57.402Z,7.70
2023-04-10T11:51:27.373Z,9.98
2023-04-10T11:54:08.137Z,7.78
2023-04-10T11:56:37.903Z,8.52
2023-04-10T11:59:10.975Z,7.15
2023-04-10T12:01:42.713Z,8.07
2023-04-10T12:04:18.712Z,7.00
2023-04-10T12:06:48.537Z,6.70
2023-04-10T12:09:19.674Z,6.65
2023-04-10T12:11:53.082Z,7.20
2023-04-10T12:14:22.303Z,6.40
2023-04-10T12:16:51.690Z,6.88
2023-04-10T12:19:20.771Z,6.43
2023-04-10T12:21:49.601Z,6.88
2023-04-10T12:24:43.515Z,6.25
2023-04-10T12:27:17.826Z,6.88
2023-04-10T12:29:46.456Z,6.15
2023-04-10T12:32:15.128Z,6.60
2023-04-10T12:34:43.787Z,5.90
2023-04-10T12:37:11.868Z,5.70
2023-04-10T12:39:40.136Z,6.68
2023-04-10T12:42:17.577Z,7.40
2023-04-10T12:44:53.200Z,7.15
2023-04-10T12:47:21.661Z,6.57
2023-04-10T12:50:04.574Z,6.05
2023-04-10T12:52:33.033Z,7.07
2023-04-10T12:55:11.673Z,6.55
2023-04-10T12:57:42.488Z,6.57
2023-04-10T13:00:13.027Z,7.10
2023-04-10T13:02:42.540Z,6.35
2023-04-10T13:05:12.111Z,6.45
2023-04-10T13:07:41.247Z,6.00
2023-04-10T13:10:10.746Z,6.57
2023-04-10T13:12:40.201Z,7.07
2023-04-10T13:15:10.850Z,7.20
2023-04-10T13:17:40.965Z,7.10
2023-04-10T13:20:11.317Z,6.72
2023-04-10T13:22:39.475Z,6.00
2023-04-10T13:25:08.257Z,6.45
2023-04-10T13:27:36.385Z,5.32
2023-04-10T13:30:06.241Z,5.90
2023-04-10T13:32:36.149Z,5.28
2023-04-10T13:35:04.690Z,5.80
2023-04-10T13:37:32.780Z,7.57
2023-04-10T13:40:00.973Z,6.90
2023-04-10T13:42:29.129Z,6.90
2023-04-10T13:44:57.171Z,5.80
2023-04-10T13:47:25.281Z,6.82
2023-04-10T13:49:55.416Z,6.93
2023-04-10T13:52:23.765Z,6.75
2023-04-10T13:54:52.246Z,6.25
2023-04-10T13:57:20.457Z,6.97
2023-04-10T13:59:48.636Z,5.35
2023-04-10T14:02:17.746Z,5.53
2023-04-10T14:04:47.551Z,5.43
2023-04-10T14:07:17.182Z,6.50
2023-04-10T14:09:46.378Z,6.03
2023-04-10T14:12:16.421Z,6.15
2023-04-10T14:14:46.650Z,6.20
2023-04-10T14:17:14.880Z,6.07
2023-04-10T14:19:43.367Z,5.65
2023-04-10T14:22:11.536Z,5.07
2023-04-10T14:24:40.879Z,5.72
2023-04-10T14:27:11.534Z,5.25
2023-04-10T14:29:50.632Z,5.60
2023-04-10T14:32:22.936Z,6.20
2023-04-10T14:34:51.135Z,6.53
2023-04-10T14:37:19.827Z,6.00
2023-04-10T14:39:49.302Z,6.20
2023-04-10T14:42:17.558Z,6.22
2023-04-10T14:44:45.756Z,6.22
2023-04-10T14:47:14.442Z,6.70
2023-04-10T14:49:42.979Z,7.93
2023-04-10T14:52:11.233Z,6.00
2023-04-10T14:54:39.283Z,6.60
2023-04-10T14:57:10.037Z,6.45
2023-04-10T14:59:38.427Z,6.95
2023-04-10T15:02:06.955Z,6.75
2023-04-10T15:04:35.380Z,6.85
2023-04-10T15:07:03.645Z,6.97
2023-04-10T15:09:31.812Z,7.35
2023-04-10T15:11:59.931Z,6.25
2023-04-10T15:14:30.101Z,6.32
2023-04-10T15:16:58.370Z,6.20
2023-04-10T15:19:26.752Z,6.57
2023-04-10T15:21:55.848Z,6.25
2023-04-10T15:24:24.399Z,5.10
2023-04-10T15:26:53.601Z,5.97
2023-04-10T15:29:21.953Z,5.60
2023-04-10T15:31:51.964Z,6.03
2023-04-10T15:34:20.549Z,6.35
2023-04-10T15:36:48.758Z,7.35
2023-04-10T15:39:17.405Z,5.47
2023-04-10T15:41:45.704Z,6.60
2023-04-10T15:44:14.164Z,6.10
2023-04-10T15:46:42.456Z,6.50
2023-04-10T15:49:12.139Z,5.97
2023-04-10T15:51:41.241Z,6.05
2023-04-10T15:54:11.008Z,5.72
2023-04-10T15:56:40.807Z,4.90
2023-04-10T15:59:09.330Z,6.28
2023-04-10T16:01:37.744Z,5.40
2023-04-10T16:04:06.400Z,4.63
2023-04-10T16:06:36.127Z,4.00
2023-04-10T16:09:12.452Z,4.30
2023-04-10T16:11:51.409Z,4.40
2023-04-10T16:14:20.088Z,6.28
2023-04-10T16:16:48.290Z,5.05
2023-04-10T16:19:16.708Z,5.35
2023-04-10T16:21:46.531Z,4.68
2023-04-10T16:24:15.105Z,5.68
2023-04-10T16:26:43.403Z,4.65
2023-04-10T16:29:11.562Z,6.40
2023-04-10T16:31:40.431Z,5.53
2023-04-10T16:34:08.772Z,6.20
2023-04-10T16:36:37.042Z,6.15
2023-04-10T16:39:07.966Z,6.15
2023-04-10T16:41:42.996Z,6.07
2023-04-10T16:44:11.367Z,6.35
2023-04-10T16:46:39.841Z,6.15
2023-04-10T16:49:08.482Z,5.72
2023-04-10T16:51:36.755Z,6.13
2023-04-10T16:54:06.744Z,5.68
2023-04-10T16:56:34.927Z,7.35
2023-04-10T16:59:03.333Z,6.70
2023-04-10T17:01:32.177Z,6.40
2023-04-10T17:04:01.068Z,7.00
2023-04-10T17:06:29.295Z,7.00
2023-04-10T17:08:58.121Z,5.95
2023-04-10T17:11:29.504Z,7.10
2023-04-10T17:13:58.567Z,6.60
2023-04-10T17:16:27.516Z,6.70
2023-04-10T17:18:56.019Z,7.15
2023-04-10T17:21:47.364Z,7.13
2023-04-10T17:24:15.676Z,6.95
2023-04-10T17:26:45.601Z,6.38
2023-04-10T17:29:13.781Z,6.95
2023-04-10T17:31:42.786Z,7.20
2023-04-10T17:34:11.193Z,8.77
2023-04-10T17:36:39.860Z,8.20
2023-04-10T17:39:08.279Z,7.97
2023-04-10T17:41:36.747Z,8.68
2023-04-10T17:44:06.451Z,8.35
2023-04-10T17:46:35.116Z,7.65
2023-04-10T17:49:03.723Z,8.23
2023-04-10T17:51:32.752Z,8.05
2023-04-10T17:54:01.359Z,8.32
2023-04-10T17:56:30.738Z,9.80
2023-04-10T17:59:00.693Z,10.10
2023-04-10T18:01:31.258Z,10.75
2023-04-10T18:04:00.360Z,11.95
2023-04-10T18:06:28.666Z,12.13
2023-04-10T18:08:57.860Z,11.95
2023-04-10T18:11:26.248Z,11.30
2023-04-10T18:13:55.644Z,10.73
2023-04-10T18:16:23.837Z,11.18
2023-04-10T18:18:54.158Z,9.57
2023-04-10T18:21:22.796Z,10.68
2023-04-10T18:23:51.297Z,12.20
2023-04-10T18:26:21.037Z,11.15
2023-04-10T18:28:49.756Z,12.10
2023-04-10T18:31:19.168Z,10.80
2023-04-10T18:33:56.184Z,11.43
2023-04-10T18:36:33.860Z,10.73
2023-04-10T18:39:02.456Z,10.57
2023-04-10T18:41:30.415Z,10.70
2023-04-10T18:44:04.814Z,11.57
2023-04-10T18:46:34.492Z,9.80
2023-04-10T18:49:03.364Z,10.68
2023-04-10T18:51:35.602Z,10.25
2023-04-10T18:54:04.146Z,10.00
2023-04-10T18:56:32.703Z,11.05
2023-04-10T18:59:01.192Z,12.00
2023-04-10T19:01:29.340Z,10.57
2023-04-10T19:03:57.814Z,10.93
2023-04-10T19:06:26.986Z,11.43
2023-04-10T19:08:56.811Z,11.57
2023-04-10T19:11:25.754Z,11.43
2023-04-10T19:13:54.612Z,11.90
2023-04-10T19:16:23.085Z,10.40
2023-04-10T19:18:51.403Z,12.23
2023-04-10T19:21:19.892Z,12.35
2023-04-10T19:23:48.196Z,12.05
2023-04-10T19:26:20.205Z,11.32
2023-04-10T19:28:48.407Z,11.70
2023-04-10T19:31:17.103Z,11.82
2023-04-10T19:33:46.311Z,11.30
2023-04-10T19:36:16.942Z,10.75
2023-04-10T19:38:48.949Z,10.18
2023-04-10T19:41:19.168Z,10.60
2023-04-10T19:43:48.148Z,8.68
2023-04-10T19:46:18.079Z,9.43
2023-04-10T19:48:46.655Z,9.65
2023-04-10T19:51:14.707Z,8.77
2023-04-10T19:53:43.188Z,8.98
2023-04-10T19:56:11.589Z,9.75
2023-04-10T19:58:42.153Z,9.23
2023-04-10T20:01:11.998Z,9.93
2023-04-10T20:03:40.739Z,11.02
2023-04-10T20:06:10.163Z,9.88
2023-04-10T20:08:38.746Z,10.88
2023-04-10T20:11:07.402Z,10.82
2023-04-10T20:13:35.921Z,9.18
2023-04-10T20:16:05.681Z,11.48
2023-04-10T20:18:33.961Z,9.55
2023-04-10T20:21:02.112Z,10.60
2023-04-10T20:23:30.237Z,9.98
2023-04-10T20:25:59.005Z,9.50
2023-04-10T20:28:27.029Z,11.80
2023-04-10T20:30:55.183Z,10.43
2023-04-10T20:33:24.560Z,10.90
2023-04-10T20:35:54.187Z,9.35
2023-04-10T20:38:22.592Z,8.77
2023-04-10T20:40:50.983Z,10.73
2023-04-10T20:43:19.072Z,9.10
2023-04-10T20:45:47.667Z,10.40
2023-04-10T20:48:16.066Z,10.52
2023-04-10T20:50:49.479Z,10.68
2023-04-10T20:53:17.675Z,10.50
2023-04-10T20:55:46.036Z,11.10
2023-04-10T20:58:14.402Z,9.13
2023-04-10T21:00:42.935Z,9.90
2023-04-10T21:03:11.399Z,9.60
2023-04-10T21:05:41.576Z,9.43
2023-04-10T21:08:13.002Z,9.25
2023-04-10T21:10:44.314Z,10.23
2023-04-10T21:13:14.164Z,9.85
2023-04-10T21:15:43.027Z,10.20
2023-04-10T21:18:12.359Z,9.27
2023-04-10T21:20:40.454Z,9.32
2023-04-10T21:23:10.305Z,9.55
2023-04-10T21:25:40.066Z,10.48
2023-04-10T21:28:08.650Z,11.15
2023-04-10T21:30:36.809Z,9.95
2023-04-10T21:33:05.139Z,10.90
2023-04-10T21:35:33.490Z,9.85
2023-04-10T21:38:02.680Z,10.13
2023-04-10T21:40:34.530Z,9.85
2023-04-10T21:43:02.889Z,11.18
2023-04-10T21:45:30.871Z,10.45
2023-04-10T21:48:00.516Z,10.23
2023-04-10T21:50:28.825Z,12.52
2023-04-10T21:52:57.546Z,10.27
2023-04-10T21:55:25.671Z,10.57
2023-04-10T21:57:55.080Z,9.77
2023-04-10T22:00:23.305Z,10.77
2023-04-10T22:02:52.212Z,10.75
2023-04-10T22:05:24.571Z,9.98
2023-04-10T22:07:53.266Z,10.55
2023-04-10T22:10:21.844Z,10.45
2023-04-10T22:12:50.096Z,9.40
2023-04-10T22:15:19.743Z,10.45
2023-04-10T22:17:47.875Z,10.82
2023-04-10T22:20:15.897Z,10.43
2023-04-10T22:22:44.334Z,10.80
2023-04-10T22:25:12.664Z,10.40
2023-04-10T22:27:40.754Z,10.65
2023-04-10T22:30:10.805Z,11.88
2023-04-10T22:32:40.347Z,10.50
2023-04-10T22:35:09.447Z,10.57
2023-04-10T22:37:37.666Z,10.88
2023-04-10T22:40:07.289Z,10.90
2023-04-10T22:42:35.475Z,12.35
2023-04-10T22:45:03.702Z,12.82
2023-04-10T22:47:32.352Z,10.95
2023-04-10T22:50:02.198Z,11.18
2023-04-10T22:52:30.527Z,11.70
2023-04-10T22:54:58.691Z,10.18
2023-04-10T22:57:27.090Z,12.25
2023-04-10T22:59:55.402Z,11.43
2023-04-10T23:02:23.724Z,11.50
2023-04-10T23:04:52.146Z,11.88
2023-04-10T23:07:21.604Z,9.32
2023-04-10T23:09:49.636Z,10.95
2023-04-10T23:12:17.698Z,11.40
2023-04-10T23:14:45.855Z,10.88
2023-04-10T23:17:14.156Z,11.02
2023-04-10T23:19:42.433Z,10.93
2023-04-10T23:22:10.787Z,10.57
2023-04-10T23:24:40.406Z,10.38
2023-04-10T23:27:08.703Z,9.65
2023-04-10T23:29:36.975Z,9.65
2023-04-10T23:32:05.934Z,11.05
2023-04-10T23:34:34.022Z,10.40
2023-04-10T23:37:02.120Z,9.75
2023-04-10T23:39:30.151Z,10.40
2023-04-10T23:42:00.502Z,9.30
2023-04-10T23:44:28.631Z,11.30
2023-04-10T23:46:56.857Z,10.15
2023-04-10T23:49:24.986Z,10.48
2023-04-10T23:51:52.976Z,10.23
2023-04-10T23:54:21.144Z,8.73
2023-04-10T23:56:49.662Z,9.05
2023-04-10T23:59:19.413Z,9.30
